Time;durP1;ratioP1;P1;durP2;ratioP2;P2;SDS_P1;SDS_P2;PMS_P1;PMS_P2;Temp;Humidity;BMP_temperature;BMP_pressure;BME280_temperature;BME280_humidity;BME280_pressure;Samples;Min_cycle;Max_cycle;Signal;HPM_P1;HPM_P2
2022/06/14 00:00:53;;;;;;;7.07;4.40;;;12.40;99.90;;;;;;5014690;28;20022;-74
2022/06/14 00:03:43;;;;;;;6.70;3.85;;;12.20;99.90;;;;;;5024240;28;20411;-75
2022/06/14 00:06:12;;;;;;;8.18;4.10;;;12.20;99.90;;;;;;5026812;28;20033;-73
2022/06/14 00:08:38;;;;;;;7.30;4.20;;;12.20;99.90;;;;;;4995866;28;20030;-73
2022/06/14 00:11:14;;;;;;;6.75;4.28;;;11.80;99.90;;;;;;5014822;28;20029;-74
2022/06/14 00:13:40;;;;;;;5.68;4.10;;;11.80;99.90;;;;;;5001422;28;20022;-73
2022/06/14 00:16:07;;;;;;;7.30;4.32;;;12.10;99.90;;;;;;5026073;28;20077;-73
2022/06/14 00:18:32;;;;;;;5.57;3.72;;;11.80;99.90;;;;;;5026581;28;20052;-73
2022/06/14 00:20:59;;;;;;;5.78;4.25;;;11.80;99.90;;;;;;5019562;28;20096;-73
2022/06/14 00:23:24;;;;;;;5.82;3.92;;;11.80;99.90;;;;;;5019380;28;20086;-73
2022/06/14 00:25:53;;;;;;;9.25;4.47;;;11.70;99.90;;;;;;5020483;28;20030;-73
2022/06/14 00:28:20;;;;;;;6.65;4.30;;;11.70;99.90;;;;;;5018966;28;20097;-74
2022/06/14 00:30:48;;;;;;;5.05;3.83;;;11.70;99.90;;;;;;5020136;28;20030;-73
2022/06/14 00:33:14;;;;;;;4.85;3.85;;;11.60;99.90;;;;;;5018350;28;20076;-73
2022/06/14 00:35:41;;;;;;;5.32;4.30;;;11.70;99.90;;;;;;5021096;28;20030;-73
2022/06/14 00:38:07;;;;;;;5.22;4.38;;;11.40;99.90;;;;;;5019471;28;20076;-73
2022/06/14 00:40:35;;;;;;;8.40;4.20;;;11.40;99.90;;;;;;5006335;28;20084;-73
2022/06/14 00:43:03;;;;;;;6.35;4.32;;;11.40;99.90;;;;;;5010315;28;20516;-73
2022/06/14 00:45:29;;;;;;;7.05;4.20;;;11.40;99.90;;;;;;5024026;28;20049;-73
2022/06/14 00:48:18;;;;;;;6.85;4.05;;;11.50;99.90;;;;;;5027993;28;20087;-75
2022/06/14 00:51:07;;;;;;;7.75;4.13;;;11.40;99.90;;;;;;5031863;28;20033;-73
2022/06/14 00:54:00;;;;;;;6.13;4.30;;;11.40;99.90;;;;;;5032451;28;20035;-74
2022/06/14 00:56:34;;;;;;;7.82;4.10;;;11.60;99.90;;;;;;4999928;28;20033;-74
2022/06/14 00:59:25;;;;;;;6.47;4.18;;;11.70;99.90;;;;;;5025835;28;20625;-73
2022/06/14 01:01:55;;;;;;;6.47;3.95;;;11.80;99.90;;;;;;5009774;28;20034;-73
2022/06/14 01:04:27;;;;;;;6.10;4.15;;;11.70;99.90;;;;;;4999393;28;20036;-73
2022/06/14 01:07:08;;;;;;;5.90;4.07;;;11.60;99.90;;;;;;5032274;28;20035;-73
2022/06/14 01:10:03;;;;;;;4.97;4.13;;;11.30;99.90;;;;;;5025040;28;20041;-74
2022/06/14 01:12:35;;;;;;;6.97;4.40;;;11.20;99.90;;;;;;5011090;28;20041;-74
2022/06/14 01:15:17;;;;;;;5.60;4.30;;;11.20;99.90;;;;;;5031866;28;20033;-74
2022/06/14 01:17:49;;;;;;;7.78;4.57;;;11.00;99.90;;;;;;5032130;28;20047;-73
2022/06/14 01:20:19;;;;;;;9.32;4.35;;;11.20;99.90;;;;;;5012341;28;20022;-75
2022/06/14 01:22:45;;;;;;;8.15;4.43;;;11.30;99.90;;;;;;5020939;28;20155;-76
2022/06/14 01:25:11;;;;;;;6.20;4.43;;;10.40;99.90;;;;;;5018816;28;20026;-73
2022/06/14 01:27:39;;;;;;;6.95;4.10;;;10.20;99.90;;;;;;5023043;28;20022;-74
2022/06/14 01:30:13;;;;;;;7.55;4.43;;;10.30;99.90;;;;;;5027575;28;20065;-73
2022/06/14 01:32:52;;;;;;;8.35;4.70;;;10.50;99.90;;;;;;5021328;28;20053;-73
2022/06/14 01:35:23;;;;;;;6.00;4.70;;;10.10;99.90;;;;;;5017047;28;20029;-75
2022/06/14 01:37:51;;;;;;;6.72;4.57;;;10.60;99.90;;;;;;5001947;28;20057;-75
2022/06/14 01:40:18;;;;;;;6.15;4.32;;;10.30;99.90;;;;;;5024739;28;20018;-74
2022/06/14 01:42:56;;;;;;;7.10;4.90;;;10.30;99.90;;;;;;5024868;28;20028;-75
2022/06/14 01:45:25;;;;;;;7.18;3.90;;;10.40;99.90;;;;;;5019843;28;20487;-75
2022/06/14 01:48:02;;;;;;;6.57;4.30;;;10.30;99.90;;;;;;5018562;28;20454;-75
2022/06/14 01:53:51;;;;;;;5.78;4.55;;;10.10;99.90;;;;;;5020372;28;20033;-74
2022/06/14 01:56:22;;;;;;;4.70;4.03;;;10.20;99.90;;;;;;5013863;28;20033;-74
2022/06/14 01:59:00;;;;;;;5.57;4.65;;;10.30;99.90;;;;;;5023428;28;20120;-75
2022/06/14 02:02:04;;;;;;;7.00;4.53;;;10.30;99.90;;;;;;5018138;28;20043;-75
2022/06/14 02:05:13;;;;;;;5.93;4.32;;;10.30;99.90;;;;;;4933004;29;20064;-75
2022/06/14 02:07:54;;;;;;;7.38;4.43;;;10.30;99.90;;;;;;5025288;28;20053;-74
2022/06/14 02:10:45;;;;;;;6.10;4.50;;;10.40;99.90;;;;;;5024786;28;20472;-73
2022/06/14 02:13:13;;;;;;;6.15;4.90;;;10.70;99.90;;;;;;5031385;28;20468;-74
2022/06/14 02:16:08;;;;;;;4.35;3.95;;;10.60;99.90;;;;;;5027656;28;20029;-74
2022/06/14 02:18:56;;;;;;;5.30;4.32;;;10.70;99.90;;;;;;5012455;28;20025;-75
2022/06/14 02:21:38;;;;;;;4.88;4.38;;;10.70;99.90;;;;;;5007038;28;20030;-74
2022/06/14 02:24:15;;;;;;;6.95;4.25;;;10.60;99.90;;;;;;5031524;28;20030;-74
2022/06/14 02:26:50;;;;;;;7.25;4.80;;;10.50;99.90;;;;;;5000497;28;20113;-74
2022/06/14 02:29:26;;;;;;;8.02;4.95;;;10.20;99.90;;;;;;5013617;28;20398;-75
2022/06/14 02:32:01;;;;;;;8.02;5.10;;;10.40;99.90;;;;;;4999877;28;20502;-76
2022/06/14 02:34:54;;;;;;;5.00;4.30;;;10.70;99.90;;;;;;5020290;28;20038;-75
2022/06/14 02:37:30;;;;;;;5.53;4.40;;;10.60;99.90;;;;;;5011391;28;20033;-76
2022/06/14 02:39:57;;;;;;;;;;;10.50;99.90;;;;;;5007535;28;20390;-76
2022/06/14 02:42:32;;;;;;;6.90;4.85;;;10.60;99.90;;;;;;5020277;28;20354;-75
2022/06/14 02:45:03;;;;;;;6.75;4.90;;;10.50;99.90;;;;;;5020103;28;20363;-75
2022/06/14 02:47:38;;;;;;;6.15;4.38;;;10.70;99.90;;;;;;5017056;28;20372;-75
2022/06/14 02:50:11;;;;;;;7.28;4.75;;;10.90;99.90;;;;;;5017095;28;20450;-75
2022/06/14 02:52:49;;;;;;;7.68;4.80;;;10.40;99.90;;;;;;5003399;28;20487;-75
2022/06/14 02:55:39;;;;;;;12.00;5.55;;;10.40;99.90;;;;;;5034664;28;20071;-74
2022/06/14 02:58:18;;;;;;;5.97;4.40;;;9.90;99.90;;;;;;5020602;28;20033;-75
2022/06/14 03:01:10;;;;;;;7.30;4.78;;;10.00;99.90;;;;;;5034033;28;20794;-74
2022/06/14 03:03:44;;;;;;;5.75;5.13;;;9.90;99.90;;;;;;5034490;28;20112;-73
2022/06/14 03:06:32;;;;;;;6.70;4.82;;;9.80;99.90;;;;;;5021203;28;20372;-72
2022/06/14 03:09:06;;;;;;;6.28;4.25;;;9.90;99.90;;;;;;5034337;28;20037;-73
2022/06/14 03:11:56;;;;;;;7.28;4.63;;;10.00;99.90;;;;;;5016028;28;20025;-73
2022/06/14 03:15:01;;;;;;;8.85;4.78;;;10.30;99.90;;;;;;5021531;28;20036;-72
2022/06/14 03:17:44;;;;;;;6.70;4.28;;;10.30;99.90;;;;;;5034240;28;20368;-73
2022/06/14 03:20:37;;;;;;;6.03;5.13;;;10.30;99.90;;;;;;5034156;28;20494;-71
2022/06/14 03:23:29;;;;;;;6.78;4.57;;;10.20;99.90;;;;;;5034406;28;20017;-74
2022/06/14 03:26:01;;;;;;;8.40;4.55;;;10.30;99.90;;;;;;5008799;28;20500;-74
2022/06/14 03:28:36;;;;;;;5.97;4.43;;;10.20;99.90;;;;;;5029437;28;20380;-73
2022/06/14 03:31:07;;;;;;;5.50;4.03;;;10.10;99.90;;;;;;5023882;28;20033;-73
2022/06/14 03:33:36;;;;;;;7.00;4.50;;;10.00;99.90;;;;;;5009978;28;20121;-74
2022/06/14 03:36:02;;;;;;;10.98;4.88;;;10.30;99.90;;;;;;4996657;28;20054;-72
2022/06/14 03:38:34;;;;;;;6.15;5.18;;;10.30;99.90;;;;;;5009766;28;20107;-73
2022/06/14 03:41:00;;;;;;;7.43;5.30;;;9.20;99.90;;;;;;5013808;28;20014;-72
2022/06/14 03:43:26;;;;;;;8.05;5.10;;;9.10;99.90;;;;;;5009792;28;20452;-73
2022/06/14 03:46:10;;;;;;;6.65;5.10;;;9.30;99.90;;;;;;5025945;28;20592;-74
2022/06/14 03:48:39;;;;;;;9.02;5.45;;;8.90;99.90;;;;;;5021626;28;20025;-74
2022/06/14 03:51:28;;;;;;;8.35;6.15;;;9.00;99.90;;;;;;5020171;28;20029;-75
2022/06/14 03:54:29;;;;;;;7.97;5.03;;;8.50;99.90;;;;;;5004840;28;20041;-75
2022/06/14 03:57:26;;;;;;;5.93;4.07;;;9.00;99.90;;;;;;5006467;28;20505;-73
2022/06/14 04:00:37;;;;;;;5.72;4.68;;;9.30;99.90;;;;;;5009331;28;20022;-76
2022/06/14 04:03:19;;;;;;;5.13;4.55;;;9.70;99.90;;;;;;5002227;28;20034;-75
2022/06/14 04:06:13;;;;;;;9.55;5.03;;;9.90;99.90;;;;;;5001017;28;20061;-72
2022/06/14 04:08:47;;;;;;;5.65;4.40;;;10.20;99.90;;;;;;5025190;28;20037;-73
2022/06/14 04:11:19;;;;;;;6.57;5.07;;;9.80;99.90;;;;;;5014388;28;20034;-74
2022/06/14 04:14:06;;;;;;;9.13;4.82;;;9.70;99.90;;;;;;5014634;28;20072;-74
2022/06/14 04:16:42;;;;;;;6.72;5.47;;;10.00;99.90;;;;;;5015571;28;20029;-74
2022/06/14 04:19:14;;;;;;;;;;;10.10;99.90;;;;;;5033980;28;20075;-74
2022/06/14 04:21:53;;;;;;;6.75;5.15;;;10.00;99.90;;;;;;5019426;28;20394;-75
2022/06/14 04:24:21;;;;;;;8.55;4.93;;;10.00;99.90;;;;;;5033911;28;20398;-75
2022/06/14 04:27:06;;;;;;;7.35;4.60;;;10.10;99.90;;;;;;5017065;28;20037;-74
2022/06/14 04:29:48;;;;;;;5.55;4.47;;;10.10;99.90;;;;;;5046581;28;20479;-74
2022/06/14 04:32:34;;;;;;;7.15;5.20;;;10.30;99.90;;;;;;4996312;28;20423;-75
2022/06/14 04:35:14;;;;;;;6.78;4.90;;;10.30;99.90;;;;;;5026653;28;20026;-74
2022/06/14 04:38:01;;;;;;;7.50;5.20;;;10.30;99.90;;;;;;5004904;28;20041;-75
2022/06/14 04:40:40;;;;;;;7.40;5.32;;;10.40;99.90;;;;;;5003257;28;20026;-74
2022/06/14 04:43:13;;;;;;;7.20;4.68;;;10.30;99.90;;;;;;5032775;28;20364;-73
2022/06/14 04:46:03;;;;;;;7.47;4.72;;;10.30;99.90;;;;;;5005237;28;20120;-74
2022/06/14 04:48:39;;;;;;;8.80;4.90;;;10.40;99.90;;;;;;5014322;28;20108;-74
2022/06/14 04:51:21;;;;;;;7.13;5.15;;;10.60;99.90;;;;;;5008061;28;20167;-74
2022/06/14 04:54:15;;;;;;;6.65;4.35;;;11.00;99.90;;;;;;5022787;28;20156;-74
2022/06/14 04:56:51;;;;;;;7.03;4.60;;;11.50;99.90;;;;;;5005843;28;20034;-74
2022/06/14 04:59:22;;;;;;;8.15;4.65;;;11.50;99.90;;;;;;5013670;28;20018;-74
2022/06/14 05:01:54;;;;;;;7.65;4.50;;;11.40;99.90;;;;;;5003326;28;20392;-74
2022/06/14 05:04:22;;;;;;;6.97;4.20;;;11.50;99.90;;;;;;5019424;28;20061;-74
2022/06/14 05:07:04;;;;;;;6.70;4.15;;;11.70;99.90;;;;;;5004504;28;20527;-74
2022/06/14 05:09:38;;;;;;;6.40;4.00;;;11.90;99.90;;;;;;5025891;28;20042;-74
2022/06/14 05:12:24;;;;;;;5.90;4.13;;;11.80;99.90;;;;;;5006992;28;20079;-74
2022/06/14 05:15:14;;;;;;;5.18;3.92;;;11.80;99.90;;;;;;5032300;28;20061;-74
2022/06/14 05:18:00;;;;;;;7.88;4.13;;;11.70;99.90;;;;;;5012615;28;20030;-74
2022/06/14 05:20:31;;;;;;;8.35;4.20;;;11.90;99.90;;;;;;5007303;28;20494;-74
2022/06/14 05:23:05;;;;;;;8.27;4.70;;;12.10;99.90;;;;;;5029523;28;20037;-74
2022/06/14 05:25:59;;;;;;;5.43;4.15;;;12.00;99.90;;;;;;5018860;28;20021;-75
2022/06/14 05:28:42;;;;;;;5.50;3.90;;;12.20;99.90;;;;;;5018685;28;20484;-73
2022/06/14 05:31:21;;;;;;;8.27;4.30;;;12.20;99.90;;;;;;5021018;28;20092;-73
2022/06/14 05:34:01;;;;;;;5.47;3.97;;;12.30;99.90;;;;;;5000471;28;20364;-75
2022/06/14 05:36:32;;;;;;;7.05;3.80;;;12.40;99.90;;;;;;5017619;28;20379;-74
2022/06/14 05:39:21;;;;;;;5.05;3.80;;;12.70;99.90;;;;;;5011994;28;20018;-74
2022/06/14 05:41:52;;;;;;;8.35;4.38;;;13.00;99.90;;;;;;5028687;28;20065;-74
2022/06/14 05:44:29;;;;;;;5.38;3.67;;;13.30;99.90;;;;;;5019827;28;20048;-75
2022/06/14 05:46:58;;;;;;;5.80;3.78;;;13.30;99.90;;;;;;5019355;28;20083;-75
2022/06/14 05:49:29;;;;;;;5.93;4.10;;;13.20;99.90;;;;;;5017457;28;20046;-75
2022/06/14 05:52:25;;;;;;;5.60;3.50;;;13.30;99.90;;;;;;5019812;28;20024;-75
2022/06/14 05:55:06;;;;;;;5.28;3.70;;;13.60;99.90;;;;;;5017012;28;20072;-75
2022/06/14 05:57:48;;;;;;;8.35;4.40;;;13.70;99.90;;;;;;5016944;28;20030;-74
2022/06/14 06:00:18;;;;;;;5.15;3.80;;;13.80;99.90;;;;;;5011444;28;20018;-75
2022/06/14 06:03:06;;;;;;;5.70;4.00;;;13.70;99.90;;;;;;5007621;28;20045;-75
2022/06/14 06:05:40;;;;;;;7.28;3.97;;;13.70;99.90;;;;;;5025060;28;20505;-75
2022/06/14 06:08:28;;;;;;;6.68;4.00;;;13.80;99.90;;;;;;5019929;28;20461;-74
2022/06/14 06:10:58;;;;;;;5.38;3.88;;;14.00;99.90;;;;;;5012865;28;20076;-74
2022/06/14 06:13:30;;;;;;;6.10;3.65;;;14.10;99.90;;;;;;5023678;28;20022;-75
2022/06/14 06:16:07;;;;;;;4.43;3.55;;;14.10;99.90;;;;;;5011956;28;20558;-75
2022/06/14 06:18:45;;;;;;;4.88;3.60;;;14.30;99.90;;;;;;5013041;28;20105;-74
2022/06/14 06:21:32;;;;;;;6.82;3.67;;;14.40;99.90;;;;;;5024197;28;20501;-74
2022/06/14 06:24:07;;;;;;;9.52;3.30;;;14.60;99.90;;;;;;5035455;28;20021;-75
2022/06/14 06:26:36;;;;;;;6.65;3.33;;;14.80;99.90;;;;;;5017624;28;20055;-74
2022/06/14 06:29:17;;;;;;;4.97;3.17;;;14.80;99.90;;;;;;5028501;28;20499;-75
2022/06/14 06:31:46;;;;;;;7.95;3.53;;;15.00;99.90;;;;;;5012636;28;20036;-75
2022/06/14 06:34:14;;;;;;;10.75;4.28;;;15.10;99.90;;;;;;5035255;28;20026;-74
2022/06/14 06:37:00;;;;;;;6.13;3.25;;;15.00;99.90;;;;;;5032216;28;20044;-75
2022/06/14 06:39:34;;;;;;;;;;;15.10;99.90;;;;;;5027990;28;20025;-75
2022/06/14 06:42:38;;;;;;;4.00;2.85;;;15.30;99.90;;;;;;5014970;28;19905;-75
2022/06/14 06:45:16;;;;;;;5.53;2.95;;;15.30;99.90;;;;;;5011044;28;20049;-75
2022/06/14 06:47:47;;;;;;;6.95;3.47;;;15.60;99.90;;;;;;5028301;28;20029;-75
2022/06/14 06:50:16;;;;;;;4.53;3.10;;;15.60;99.90;;;;;;5022678;28;20048;-75
2022/06/14 06:53:01;;;;;;;6.57;3.35;;;15.60;99.90;;;;;;5004002;28;20033;-75
2022/06/14 06:55:54;;;;;;;6.85;3.20;;;15.80;99.90;;;;;;5024135;28;20030;-76
2022/06/14 06:58:54;;;;;;;5.20;2.60;;;15.80;99.90;;;;;;5022690;28;20068;-75
2022/06/14 07:01:47;;;;;;;6.35;2.72;;;15.90;99.90;;;;;;4996578;28;20034;-76
2022/06/14 07:04:15;;;;;;;5.57;2.78;;;16.00;99.90;;;;;;5008139;28;20030;-75
2022/06/14 07:06:57;;;;;;;5.80;2.65;;;16.10;99.90;;;;;;5007332;28;20029;-75
2022/06/14 07:09:32;;;;;;;5.15;2.53;;;16.20;99.90;;;;;;5021220;28;20044;-75
2022/06/14 07:12:13;;;;;;;4.78;2.28;;;16.30;99.90;;;;;;5020881;28;20036;-76
2022/06/14 07:15:01;;;;;;;4.10;2.13;;;16.40;99.90;;;;;;4997226;28;20033;-76
2022/06/14 07:17:29;;;;;;;5.22;2.00;;;16.40;99.90;;;;;;5027915;28;20052;-75
2022/06/14 07:20:04;;;;;;;6.88;2.22;;;16.70;99.90;;;;;;5008473;28;20026;-75
2022/06/14 07:22:43;;;;;;;4.18;2.30;;;17.20;99.90;;;;;;5002859;28;20030;-76
2022/06/14 07:25:11;;;;;;;4.03;2.20;;;17.50;99.90;;;;;;5003277;28;20035;-75
2022/06/14 07:27:48;;;;;;;4.50;2.10;;;17.40;99.90;;;;;;5008866;28;20030;-76
2022/06/14 07:30:37;;;;;;;5.25;1.98;;;17.30;99.90;;;;;;5026331;28;20021;-76
2022/06/14 07:33:03;;;;;;;4.88;1.83;;;17.50;99.90;;;;;;5026932;28;20029;-75
2022/06/14 07:35:54;;;;;;;4.07;2.10;;;17.70;99.90;;;;;;5002999;28;20029;-76
2022/06/14 07:38:42;;;;;;;4.55;1.98;;;18.00;99.90;;;;;;5010014;28;20475;-76
2022/06/14 07:41:16;;;;;;;4.20;1.80;;;18.30;99.90;;;;;;5021180;28;20383;-76
2022/06/14 07:43:59;;;;;;;3.85;2.05;;;18.00;99.90;;;;;;5021132;28;20021;-76
2022/06/14 07:46:46;;;;;;;4.22;2.08;;;18.20;99.90;;;;;;5020560;28;20021;-76
2022/06/14 07:49:18;;;;;;;4.07;1.80;;;18.10;99.90;;;;;;5021854;28;20076;-75
2022/06/14 07:51:50;;;;;;;4.20;1.83;;;18.40;99.90;;;;;;5019955;28;20028;-75
2022/06/14 07:54:28;;;;;;;3.85;1.95;;;18.50;99.90;;;;;;5020393;28;20057;-75
2022/06/14 07:57:11;;;;;;;3.72;1.92;;;18.40;99.90;;;;;;5025327;28;20030;-75
2022/06/14 07:59:53;;;;;;;4.18;2.33;;;18.30;99.90;;;;;;5027284;28;20029;-74
2022/06/14 08:02:39;;;;;;;4.18;1.73;;;18.00;99.90;;;;;;4996012;28;20029;-75
2022/06/14 08:05:15;;;;;;;;;;;17.90;99.90;;;;;;5023664;28;20021;-76
2022/06/14 08:07:43;;;;;;;3.70;1.70;;;18.00;99.90;;;;;;4998489;28;19906;-75
2022/06/14 08:10:37;;;;;;;3.90;1.75;;;18.30;99.90;;;;;;5007147;28;20100;-75
2022/06/14 08:13:09;;;;;;;9.32;2.22;;;18.50;99.90;;;;;;5028745;28;20080;-75
2022/06/14 08:15:45;;;;;;;2.78;1.95;;;18.40;99.90;;;;;;5033271;28;20423;-75
2022/06/14 08:18:30;;;;;;;6.50;1.85;;;18.30;99.90;;;;;;5033442;28;20075;-75
2022/06/14 08:21:15;;;;;;;4.30;1.90;;;18.60;99.90;;;;;;5014802;28;20071;-75
2022/06/14 08:23:47;;;;;;;4.28;1.67;;;18.40;99.90;;;;;;5030575;28;20026;-75
2022/06/14 08:26:32;;;;;;;3.65;1.70;;;18.40;99.90;;;;;;5013506;28;20038;-76
2022/06/14 08:29:17;;;;;;;6.25;1.80;;;18.30;99.90;;;;;;5026664;28;20095;-75
2022/06/14 08:31:51;;;;;;;7.32;2.30;;;18.40;99.90;;;;;;5008665;28;20513;-76
2022/06/14 08:34:42;;;;;;;4.82;2.13;;;18.50;99.90;;;;;;5013342;28;20133;-75
2022/06/14 08:37:36;;;;;;;5.60;2.00;;;18.50;99.90;;;;;;5002270;28;20095;-75
2022/06/14 08:40:23;;;;;;;4.93;2.75;;;18.60;99.90;;;;;;5012851;28;20026;-75
2022/06/14 08:42:54;;;;;;;3.08;2.03;;;18.40;99.90;;;;;;5026386;28;20419;-75
2022/06/14 08:45:53;;;;;;;4.82;2.50;;;18.80;99.90;;;;;;5025673;28;20021;-75
2022/06/14 08:48:41;;;;;;;6.88;2.55;;;18.80;99.90;;;;;;5026228;28;20484;-75
2022/06/14 08:51:21;;;;;;;4.45;2.28;;;18.80;99.90;;;;;;5012181;28;20061;-75
2022/06/14 08:54:06;;;;;;;4.00;2.10;;;19.20;99.90;;;;;;5005006;28;20144;-75
2022/06/14 08:56:50;;;;;;;3.05;1.83;;;18.90;99.90;;;;;;5026835;28;20069;-77
2022/06/14 08:59:28;;;;;;;2.90;1.80;;;19.00;99.90;;;;;;5025885;28;20026;-76
2022/06/14 09:02:15;;;;;;;3.13;1.90;;;19.50;99.90;;;;;;5022034;28;20068;-76
2022/06/14 09:04:59;;;;;;;4.63;2.22;;;19.40;99.90;;;;;;5013193;28;20021;-74
2022/06/14 09:08:02;;;;;;;3.88;2.38;;;19.30;99.90;;;;;;5014438;28;20030;-73
2022/06/14 09:10:46;;;;;;;6.03;2.88;;;19.10;99.90;;;;;;5031531;28;20033;-76
2022/06/14 09:13:36;;;;;;;5.80;2.17;;;18.90;99.90;;;;;;5012613;28;20109;-75
2022/06/14 09:16:25;;;;;;;6.13;2.25;;;19.00;99.90;;;;;;5018960;28;20117;-75
2022/06/14 09:19:35;;;;;;;3.33;1.98;;;19.50;99.90;;;;;;4998225;28;20037;-75
2022/06/14 09:22:09;;;;;;;5.40;2.38;;;20.00;99.90;;;;;;4976739;28;20436;-75
2022/06/14 09:24:54;;;;;;;7.32;2.20;;;20.40;99.90;;;;;;4980548;28;20031;-76
2022/06/14 09:27:51;;;;;;;7.07;2.30;;;20.40;99.90;;;;;;5010833;28;20029;-76
2022/06/14 09:30:37;;;;;;;4.18;2.10;;;20.40;99.90;;;;;;5000718;28;20049;-77
2022/06/14 09:33:21;;;;;;;4.25;1.60;;;20.40;99.90;;;;;;5001101;28;20030;-76
2022/06/14 09:36:12;;;;;;;4.20;2.00;;;19.80;99.40;;;;;;5004957;28;20025;-76
2022/06/14 09:38:56;;;;;;;5.28;2.25;;;19.90;99.60;;;;;;5025321;28;20026;-76
2022/06/14 09:41:46;;;;;;;5.65;2.05;;;20.40;99.90;;;;;;5024776;28;20066;-77
2022/06/14 09:44:33;;;;;;;3.45;2.17;;;20.30;99.90;;;;;;5023683;28;20021;-76
2022/06/14 09:47:14;;;;;;;7.15;2.13;;;20.20;99.10;;;;;;5019992;28;20379;-76
2022/06/14 09:49:57;;;;;;;3.25;1.83;;;20.20;99.80;;;;;;5018608;28;20053;-76
2022/06/14 09:53:03;;;;;;;4.78;1.95;;;20.50;99.90;;;;;;5031301;28;20060;-76
2022/06/14 09:55:35;;;;;;;3.95;1.85;;;20.80;98.70;;;;;;5003454;28;20431;-77
2022/06/14 09:58:29;;;;;;;4.15;2.13;;;20.40;99.10;;;;;;5025280;28;20097;-77
2022/06/14 10:01:06;;;;;;;3.58;1.75;;;20.40;99.20;;;;;;5024583;28;20049;-76
2022/06/14 10:03:56;;;;;;;6.45;1.98;;;20.20;98.30;;;;;;5021993;28;20014;-76
2022/06/14 10:06:34;;;;;;;4.95;1.63;;;20.80;97.70;;;;;;5018516;28;20018;-76
2022/06/14 10:09:28;;;;;;;4.65;1.90;;;20.90;98.20;;;;;;5000698;28;20080;-76
2022/06/14 10:12:03;;;;;;;3.60;2.10;;;20.70;97.80;;;;;;4997032;28;20033;-76
2022/06/14 10:15:05;;;;;;;3.90;1.73;;;20.70;96.70;;;;;;5018910;28;20026;-77
2022/06/14 10:17:36;;;;;;;3.42;2.10;;;20.90;96.70;;;;;;5004143;28;20718;-76
2022/06/14 10:20:13;;;;;;;3.67;1.48;;;20.60;97.00;;;;;;5024697;28;20484;-76
2022/06/14 10:23:06;;;;;;;2.88;1.40;;;20.80;96.50;;;;;;5019468;28;20435;-76
2022/06/14 10:28:57;;;;;;;6.25;2.00;;;20.60;97.30;;;;;;5018192;28;20057;-77
2022/06/14 10:31:45;;;;;;;4.25;1.65;;;21.20;96.40;;;;;;5018607;28;20495;-76
2022/06/14 10:34:29;;;;;;;3.10;1.70;;;20.70;95.80;;;;;;5020483;28;20021;-77
2022/06/14 10:37:01;;;;;;;3.47;1.73;;;21.10;96.90;;;;;;5018148;28;20495;-76
2022/06/14 10:40:03;;;;;;;4.15;1.50;;;21.40;96.90;;;;;;5019326;28;20025;-76
2022/06/14 10:42:41;;;;;;;3.67;1.63;;;22.10;96.20;;;;;;5021276;28;20100;-76
2022/06/14 10:45:29;;;;;;;3.58;1.70;;;21.80;96.40;;;;;;5000070;28;20022;-76
2022/06/14 10:48:27;;;;;;;4.22;1.80;;;21.60;97.00;;;;;;5017959;28;20064;-76
2022/06/14 10:51:20;;;;;;;3.70;1.60;;;21.70;95.20;;;;;;5017580;28;20480;-76
2022/06/14 10:53:49;;;;;;;4.70;1.63;;;21.50;96.10;;;;;;5021619;28;20033;-76
2022/06/14 10:56:25;;;;;;;3.92;1.60;;;22.20;95.00;;;;;;5017778;28;20033;-77
2022/06/14 10:59:14;;;;;;;3.80;1.80;;;22.30;95.10;;;;;;5018875;28;20034;-76
2022/06/14 11:02:17;;;;;;;4.03;2.00;;;22.60;94.80;;;;;;5021539;28;20033;-76
2022/06/14 11:05:19;;;;;;;3.80;1.45;;;22.70;95.00;;;;;;5000603;28;20049;-77
2022/06/14 11:07:48;;;;;;;2.83;1.35;;;23.30;95.00;;;;;;5021087;28;20029;-77
2022/06/14 11:10:31;;;;;;;3.65;1.50;;;23.70;94.00;;;;;;5021885;28;20033;-77
2022/06/14 11:13:12;;;;;;;5.00;1.50;;;23.60;94.50;;;;;;5022832;28;20034;-77
2022/06/14 11:15:49;;;;;;;2.72;1.80;;;24.00;94.10;;;;;;5034356;28;20026;-76
2022/06/14 11:18:35;;;;;;;4.60;1.80;;;23.70;94.20;;;;;;5023002;28;20022;-76
2022/06/14 11:21:27;;;;;;;4.97;1.75;;;22.90;95.10;;;;;;5021670;28;20025;-76
2022/06/14 11:24:09;;;;;;;3.88;1.70;;;22.90;93.50;;;;;;5030542;28;20512;-76
2022/06/14 11:27:14;;;;;;;3.60;1.70;;;23.50;94.00;;;;;;5028875;28;20128;-75
2022/06/14 11:30:10;;;;;;;3.90;1.92;;;23.00;94.10;;;;;;5011944;28;20132;-75
2022/06/14 11:32:45;;;;;;;3.80;1.97;;;22.80;93.70;;;;;;5023126;28;20337;-72
2022/06/14 11:35:47;;;;;;;6.07;1.70;;;22.30;94.20;;;;;;5003202;28;20256;-73
2022/06/14 11:38:26;;;;;;;3.92;1.88;;;23.00;94.80;;;;;;5020810;28;20488;-72
2022/06/14 11:41:01;;;;;;;7.45;2.00;;;22.80;93.30;;;;;;5023250;28;20030;-72
2022/06/14 11:44:08;;;;;;;3.72;1.70;;;22.60;93.60;;;;;;5027734;28;20026;-72
2022/06/14 11:46:47;;;;;;;3.42;1.90;;;23.20;93.50;;;;;;5027409;28;20029;-72
2022/06/14 11:49:31;;;;;;;3.92;1.90;;;23.20;93.70;;;;;;5026364;28;20086;-72
2022/06/14 11:52:06;;;;;;;2.40;1.50;;;23.70;94.10;;;;;;5021314;28;20147;-72
2022/06/14 11:54:41;;;;;;;4.00;1.80;;;23.90;93.70;;;;;;5020612;28;20391;-72
2022/06/14 11:57:52;;;;;;;4.30;1.80;;;23.10;93.20;;;;;;5023597;28;20069;-72
2022/06/14 12:00:39;;;;;;;3.20;1.88;;;23.40;92.70;;;;;;4943364;28;20661;-72
2022/06/14 12:03:18;;;;;;;2.67;1.90;;;23.80;92.50;;;;;;4947025;29;20479;-72
2022/06/14 12:05:55;;;;;;;4.10;1.70;;;24.10;93.30;;;;;;4993846;28;20042;-72
2022/06/14 12:08:46;;;;;;;6.40;1.90;;;24.90;94.00;;;;;;5022902;28;20099;-72
2022/06/14 12:11:20;;;;;;;3.22;1.55;;;24.40;92.70;;;;;;5019625;28;20075;-73
2022/06/14 12:13:52;;;;;;;2.47;1.63;;;23.80;91.90;;;;;;5033189;28;20036;-73
2022/06/14 12:16:26;;;;;;;1.67;1.48;;;23.40;91.70;;;;;;5024152;28;20088;-75
2022/06/14 12:19:06;;;;;;;1.80;1.50;;;24.20;91.80;;;;;;5013382;28;20018;-73
2022/06/14 12:22:26;;;;;;;3.47;1.40;;;24.60;92.00;;;;;;5024459;28;20025;-73
2022/06/14 12:27:42;;;;;;;2.85;1.50;;;24.80;92.30;;;;;;5019183;28;20041;-73
2022/06/14 12:30:13;;;;;;;3.03;1.50;;;25.20;91.90;;;;;;5015576;28;20034;-73
2022/06/14 12:33:17;;;;;;;2.03;1.80;;;25.10;91.10;;;;;;5023124;28;20484;-75
2022/06/14 12:36:18;;;;;;;2.70;1.63;;;24.90;91.20;;;;;;5004246;28;20038;-75
2022/06/14 12:38:46;;;;;;;4.07;1.73;;;25.50;91.70;;;;;;5019762;28;20040;-75
2022/06/14 12:41:19;;;;;;;3.67;1.88;;;25.50;90.40;;;;;;5001301;28;20072;-74
2022/06/14 12:44:08;;;;;;;2.92;1.58;;;25.70;90.00;;;;;;5025187;28;20057;-76
2022/06/14 12:46:39;;;;;;;3.97;1.98;;;25.70;90.20;;;;;;5026391;28;20064;-75
2022/06/14 12:49:29;;;;;;;4.57;1.80;;;25.70;88.70;;;;;;5006885;28;20029;-75
2022/06/14 12:52:06;;;;;;;2.53;1.55;;;25.70;89.60;;;;;;5024091;28;20030;-74
2022/06/14 12:54:42;;;;;;;4.88;1.80;;;26.30;89.00;;;;;;5008580;28;20033;-76
2022/06/14 12:57:29;;;;;;;3.88;1.80;;;27.00;88.40;;;;;;5023513;28;20021;-75
2022/06/14 13:00:07;;;;;;;2.45;1.58;;;26.80;85.10;;;;;;5025317;28;20384;-75
2022/06/14 13:02:55;;;;;;;3.78;1.52;;;27.10;86.70;;;;;;5025291;28;20124;-75
2022/06/14 13:05:26;;;;;;;3.08;1.98;;;27.30;87.00;;;;;;5024525;28;20147;-75
2022/06/14 13:08:14;;;;;;;3.95;1.38;;;27.80;86.70;;;;;;5013108;28;20022;-75
2022/06/14 13:10:51;;;;;;;3.47;1.77;;;27.50;86.50;;;;;;5027444;28;20487;-76
2022/06/14 13:13:43;;;;;;;3.60;1.65;;;27.70;85.30;;;;;;5004326;28;20040;-75
2022/06/14 13:16:47;;;;;;;2.25;1.80;;;27.60;84.20;;;;;;5018645;28;20025;-76
2022/06/14 13:19:36;;;;;;;2.45;1.70;;;27.50;83.40;;;;;;5018863;28;20464;-75
2022/06/14 13:22:33;;;;;;;2.63;1.80;;;26.60;83.70;;;;;;5029076;28;20021;-75
2022/06/14 13:25:31;;;;;;;2.67;1.63;;;27.50;84.60;;;;;;5001832;28;20073;-75
2022/06/14 13:28:13;;;;;;;2.83;1.40;;;28.10;85.30;;;;;;5016052;28;20127;-75
2022/06/14 13:30:57;;;;;;;3.97;2.00;;;27.90;81.90;;;;;;5011568;28;20022;-76
2022/06/14 13:34:01;;;;;;;5.32;1.88;;;28.20;82.60;;;;;;5027700;28;20610;-75
2022/06/14 13:36:39;;;;;;;3.58;1.48;;;27.80;81.70;;;;;;5018750;28;20030;-76
2022/06/14 13:39:16;;;;;;;1.90;1.30;;;28.10;81.10;;;;;;5022734;28;20025;-75
2022/06/14 13:42:02;;;;;;;4.07;1.83;;;27.30;79.60;;;;;;5029031;28;20026;-75
2022/06/14 13:44:43;;;;;;;2.70;1.50;;;27.20;82.20;;;;;;5018558;28;20050;-75
2022/06/14 13:47:31;;;;;;;3.53;1.88;;;27.40;80.90;;;;;;5003253;28;20100;-75
2022/06/14 13:50:05;;;;;;;3.63;1.60;;;27.30;80.40;;;;;;5012916;28;20080;-75
2022/06/14 13:52:50;;;;;;;1.90;1.65;;;27.30;81.00;;;;;;5024140;28;20594;-74
2022/06/14 13:55:16;;;;;;;2.30;1.60;;;27.50;81.40;;;;;;4994416;28;20029;-76
2022/06/14 13:58:13;;;;;;;6.50;1.85;;;28.00;80.10;;;;;;5024971;28;20032;-75
2022/06/14 14:01:04;;;;;;;3.85;1.70;;;27.30;79.40;;;;;;4980436;28;20041;-75
2022/06/14 14:03:49;;;;;;;2.65;1.75;;;28.40;78.60;;;;;;5003534;28;20779;-75
2022/06/14 14:06:39;;;;;;;5.07;1.73;;;27.90;78.10;;;;;;5018444;28;20083;-75
2022/06/14 14:09:35;;;;;;;3.47;1.65;;;27.60;78.30;;;;;;5018246;28;20511;-74